createdAt,value
2019-02-22T00:00:13.075Z,42.60
2019-02-22T00:01:13.053Z,44.30
2019-02-22T00:02:13.045Z,40.50
2019-02-22T00:03:13.042Z,41.90
2019-02-22T00:04:13.033Z,39.80
2019-02-22T00:05:13.004Z,42.60
2019-02-22T00:06:13.038Z,39.10
2019-02-22T00:07:13.013Z,44.30
2019-02-22T00:08:13.001Z,43.20
2019-02-22T00:09:12.969Z,40.80
2019-02-22T00:10:12.942Z,44.60
2019-02-22T00:11:12.936Z,42.40
2019-02-22T00:12:12.923Z,44.80
2019-02-22T00:13:12.918Z,43.20
2019-02-22T00:14:12.912Z,46.00
2019-02-22T00:15:12.925Z,41.70
2019-02-22T00:16:12.883Z,41.10
2019-02-22T00:17:12.910Z,43.00
2019-02-22T00:18:12.886Z,40.30
2019-02-22T00:19:12.857Z,40.90
2019-02-22T00:20:12.838Z,45.00
2019-02-22T00:21:12.828Z,43.10
2019-02-22T00:22:12.813Z,44.20
2019-02-22T00:23:12.812Z,42.30
2019-02-22T00:24:12.810Z,43.80
2019-02-22T00:25:12.801Z,45.60
2019-02-22T00:26:12.781Z,49.00
2019-02-22T00:27:12.766Z,42.00
2019-02-22T00:28:12.776Z,43.60
2019-02-22T00:29:12.737Z,43.20
2019-02-22T00:30:12.730Z,44.90
2019-02-22T00:31:12.718Z,42.40
2019-02-22T00:32:12.719Z,44.10
2019-02-22T00:33:12.712Z,42.40
2019-02-22T00:34:12.725Z,41.70
2019-02-22T00:35:12.684Z,46.10
2019-02-22T00:36:14.033Z,43.90
2019-02-22T00:37:12.763Z,42.20
2019-02-22T00:38:12.656Z,45.10
2019-02-22T00:39:12.631Z,42.30
2019-02-22T00:40:12.641Z,40.70
2019-02-22T00:41:12.640Z,40.30
2019-02-22T00:42:12.600Z,45.40
2019-02-22T00:43:12.635Z,41.60
2019-02-22T00:44:12.706Z,41.20
2019-02-22T00:45:12.570Z,44.80
2019-02-22T00:46:12.598Z,44.10
2019-02-22T00:47:12.547Z,45.00
2019-02-22T00:48:12.564Z,44.50
2019-02-22T00:49:12.528Z,44.20
2019-02-22T00:50:12.513Z,46.00
2019-02-22T00:51:12.630Z,44.00
2019-02-22T00:52:12.495Z,45.40
2019-02-22T00:53:12.482Z,46.30
2019-02-22T00:54:12.473Z,44.50
2019-02-22T00:55:12.455Z,44.80
2019-02-22T00:56:12.456Z,43.70
2019-02-22T00:57:12.486Z,43.50
2019-02-22T00:58:12.505Z,45.00
2019-02-22T00:59:12.419Z,45.00
2019-02-22T01:00:12.428Z,45.30
2019-02-22T01:01:12.416Z,44.20
2019-02-22T01:02:12.382Z,49.40
2019-02-22T01:03:12.394Z,45.20
2019-02-22T01:04:12.359Z,41.40
2019-02-22T01:05:12.427Z,49.20
2019-02-22T01:06:12.342Z,45.80
2019-02-22T01:07:12.336Z,45.00
2019-02-22T01:08:12.402Z,46.30
2019-02-22T01:09:12.306Z,47.40
2019-02-22T01:10:12.316Z,46.50
2019-02-22T01:11:12.295Z,42.80
2019-02-22T01:12:12.303Z,44.10
2019-02-22T01:13:12.281Z,45.50
2019-02-22T01:14:12.289Z,51.30
2019-02-22T01:15:12.243Z,47.90
2019-02-22T01:16:12.248Z,46.80
2019-02-22T01:17:12.233Z,48.80
2019-02-22T01:18:12.236Z,46.70
2019-02-22T01:19:12.219Z,48.00
2019-02-22T01:20:12.188Z,47.30
2019-02-22T01:21:12.182Z,45.80
2019-02-22T01:22:12.171Z,44.30
2019-02-22T01:23:12.190Z,47.10
2019-02-22T01:24:12.177Z,50.60
2019-02-22T01:25:12.152Z,49.60
2019-02-22T01:26:12.162Z,44.20
2019-02-22T01:27:12.133Z,47.90
2019-02-22T01:28:12.103Z,55.30
2019-02-22T01:29:12.129Z,45.90
2019-02-22T01:30:12.083Z,50.00
2019-02-22T01:31:12.097Z,51.60
2019-02-22T01:32:12.061Z,50.60
2019-02-22T01:33:12.079Z,51.10
2019-02-22T01:34:12.061Z,48.90
2019-02-22T01:35:12.074Z,51.10
2019-02-22T01:36:12.039Z,49.50
2019-02-22T01:37:12.040Z,50.60
2019-02-22T01:38:11.995Z,52.60
2019-02-22T01:39:12.005Z,50.50
2019-02-22T01:40:11.981Z,52.00
2019-02-22T01:41:12.014Z,48.30
2019-02-22T01:42:11.958Z,52.80
2019-02-22T01:43:11.970Z,55.40
2019-02-22T01:44:11.989Z,51.70
2019-02-22T01:45:11.927Z,53.40
2019-02-22T01:46:11.915Z,47.10
2019-02-22T01:47:11.899Z,53.70
2019-02-22T01:48:11.942Z,53.60
2019-02-22T01:49:11.902Z,54.80
2019-02-22T01:50:11.868Z,52.80
2019-02-22T01:51:11.870Z,50.30
2019-02-22T01:52:11.859Z,51.50
2019-02-22T01:53:11.855Z,52.50
2019-02-22T01:54:11.836Z,50.60
2019-02-22T01:55:11.830Z,55.20
2019-02-22T01:56:11.861Z,55.60
2019-02-22T01:57:11.805Z,52.70
2019-02-22T01:58:11.792Z,52.70
2019-02-22T01:59:11.784Z,51.80
2019-02-22T02:00:11.809Z,51.80
2019-02-22T02:01:11.763Z,53.10
2019-02-22T02:02:11.754Z,57.00
2019-02-22T02:03:11.749Z,51.70
2019-02-22T02:04:11.768Z,52.60
2019-02-22T02:05:11.707Z,51.20
2019-02-22T02:06:11.693Z,54.10
2019-02-22T02:07:11.687Z,54.20
2019-02-22T02:08:11.682Z,51.90
2019-02-22T02:09:11.698Z,54.40
2019-02-22T02:10:11.662Z,55.30
2019-02-22T02:11:11.656Z,51.00
2019-02-22T02:12:11.631Z,48.30
2019-02-22T02:13:11.623Z,55.90
2019-02-22T02:14:11.617Z,54.30
2019-02-22T02:15:11.636Z,53.10
2019-02-22T02:16:11.591Z,52.60
2019-02-22T02:17:11.606Z,54.00
2019-02-22T02:18:11.575Z,56.00
2019-02-22T02:19:11.640Z,51.70
2019-02-22T02:20:11.582Z,52.40
2019-02-22T02:21:11.543Z,57.20
2019-02-22T02:22:11.522Z,51.40
2019-02-22T02:23:11.510Z,56.30
2019-02-22T02:24:11.558Z,57.00
2019-02-22T02:25:11.505Z,57.90
2019-02-22T02:26:11.509Z,57.30
2019-02-22T02:27:11.474Z,56.60
2019-02-22T02:28:11.473Z,59.50
2019-02-22T02:29:11.450Z,55.40
2019-02-22T02:30:11.444Z,58.10
2019-02-22T02:31:11.433Z,60.00
2019-02-22T02:32:11.437Z,60.20
2019-02-22T02:33:11.413Z,56.70
2019-02-22T02:34:11.408Z,58.20
2019-02-22T02:35:11.394Z,56.00
2019-02-22T02:36:11.384Z,57.70
2019-02-22T02:37:11.363Z,56.80
2019-02-22T02:38:11.370Z,56.50
2019-02-22T02:39:11.352Z,61.50
2019-02-22T02:40:11.409Z,58.90
2019-02-22T02:41:11.735Z,59.00
2019-02-22T02:42:11.322Z,58.60
2019-02-22T02:43:11.311Z,59.50
2019-02-22T02:44:11.290Z,60.70
2019-02-22T02:45:11.290Z,59.40
2019-02-22T02:46:11.408Z,61.60
2019-02-22T02:47:11.254Z,57.70
2019-02-22T02:48:11.275Z,57.00
2019-02-22T02:49:11.248Z,62.50
2019-02-22T02:50:11.274Z,57.10
2019-02-22T02:51:11.224Z,60.10
2019-02-22T02:52:11.209Z,59.50
2019-02-22T02:53:11.237Z,59.20
2019-02-22T02:54:11.205Z,67.50
2019-02-22T02:55:11.194Z,60.90
2019-02-22T02:56:11.197Z,62.10
2019-02-22T02:57:11.163Z,62.50
2019-02-22T02:58:11.184Z,59.60
2019-02-22T02:59:11.127Z,59.30
2019-02-22T03:00:11.202Z,63.20
2019-02-22T03:01:11.111Z,63.10
2019-02-22T03:02:11.107Z,65.00
2019-02-22T03:03:11.103Z,62.40
2019-02-22T03:04:11.072Z,70.20
2019-02-22T03:05:11.087Z,68.90
2019-02-22T03:06:11.175Z,75.40
2019-02-22T03:07:11.045Z,69.50
2019-02-22T03:08:11.045Z,72.90
2019-02-22T03:09:11.029Z,69.20
2019-02-22T03:10:11.070Z,67.50
2019-02-22T03:11:20.040Z,67.90
2019-02-22T03:12:12.007Z,75.90
2019-02-22T03:13:10.979Z,72.90
2019-02-22T03:14:10.974Z,74.50
2019-02-22T03:15:10.994Z,74.10
2019-02-22T03:16:10.949Z,65.70
2019-02-22T03:17:10.986Z,68.80
2019-02-22T03:18:10.923Z,69.90
2019-02-22T03:19:10.922Z,69.40
2019-02-22T03:20:10.957Z,70.00
2019-02-22T03:21:10.899Z,74.40
2019-02-22T03:22:10.893Z,72.80
2019-02-22T03:23:10.871Z,74.50
2019-02-22T03:24:10.861Z,73.80
2019-02-22T03:25:10.876Z,68.90
2019-02-22T03:26:10.887Z,73.70
2019-02-22T03:27:10.841Z,77.00
2019-02-22T03:28:10.826Z,75.10
2019-02-22T03:29:10.808Z,71.60
2019-02-22T03:30:10.796Z,72.60
2019-02-22T03:31:10.816Z,68.80
2019-02-22T03:32:10.790Z,71.10
2019-02-22T03:33:10.793Z,74.60
2019-02-22T03:34:10.752Z,75.70
2019-02-22T03:35:10.796Z,74.40
2019-02-22T03:36:10.743Z,76.10
2019-02-22T03:37:10.726Z,73.40
2019-02-22T03:38:10.717Z,79.30
2019-02-22T03:39:10.724Z,77.50
2019-02-22T03:40:10.700Z,77.40
2019-02-22T03:41:10.713Z,73.50
2019-02-22T03:42:10.672Z,81.40
2019-02-22T03:43:10.656Z,77.80
2019-02-22T03:44:10.661Z,74.00
2019-02-22T03:45:10.648Z,76.00
2019-02-22T03:46:10.652Z,74.00
2019-02-22T03:47:10.654Z,75.60
2019-02-22T03:48:10.599Z,75.10
2019-02-22T03:49:10.600Z,76.70
2019-02-22T03:50:10.580Z,74.60
2019-02-22T03:51:10.615Z,76.60
2019-02-22T03:52:10.578Z,76.20
2019-02-22T03:53:10.573Z,74.80
2019-02-22T03:54:10.566Z,78.90
2019-02-22T03:55:10.558Z,76.50
2019-02-22T03:56:10.546Z,75.60
2019-02-22T03:57:10.511Z,74.00
2019-02-22T03:58:10.566Z,78.30
2019-02-22T03:59:10.481Z,76.10
2019-02-22T04:00:10.500Z,77.70
2019-02-22T04:01:10.474Z,79.60
2019-02-22T04:02:10.470Z,80.60
2019-02-22T04:03:10.440Z,78.20
2019-02-22T04:04:10.456Z,82.80
2019-02-22T04:05:11.040Z,76.70
2019-02-22T04:06:10.430Z,74.10
2019-02-22T04:07:10.417Z,79.30
2019-02-22T04:08:10.398Z,74.40
2019-02-22T04:09:10.396Z,71.80
2019-02-22T04:10:10.372Z,74.60
2019-02-22T04:11:10.373Z,75.70
2019-02-22T04:12:10.342Z,73.00
2019-02-22T04:13:10.330Z,75.20
2019-02-22T04:14:10.320Z,74.20
2019-02-22T04:15:10.310Z,74.60
2019-02-22T04:16:10.338Z,73.80
2019-02-22T04:17:11.507Z,80.10
2019-02-22T04:18:10.286Z,77.10
2019-02-22T04:19:10.627Z,77.30
2019-02-22T04:20:10.310Z,78.20
2019-02-22T04:21:10.299Z,78.40
2019-02-22T04:22:10.242Z,77.00
2019-02-22T04:23:10.277Z,78.20
2019-02-22T04:24:10.225Z,81.50
2019-02-22T04:25:10.210Z,80.80
2019-02-22T04:26:10.201Z,85.60
2019-02-22T04:27:10.190Z,76.40
2019-02-22T04:28:10.172Z,76.60
2019-02-22T04:29:10.229Z,79.10
2019-02-22T04:30:10.161Z,78.10
2019-02-22T04:31:10.139Z,78.70
2019-02-22T04:32:10.131Z,81.50
2019-02-22T04:33:10.124Z,81.00
2019-02-22T04:34:10.155Z,75.80
2019-02-22T04:35:10.107Z,83.90
2019-02-22T04:36:10.098Z,81.40
2019-02-22T04:37:10.102Z,85.10
2019-02-22T04:38:10.067Z,84.00
2019-02-22T04:39:10.089Z,82.50
2019-02-22T04:40:10.042Z,85.30
2019-02-22T04:41:10.133Z,88.70
2019-02-22T04:42:10.055Z,83.10
2019-02-22T04:43:10.019Z,84.70
2019-02-22T04:44:10.017Z,82.70
2019-02-22T04:45:10.006Z,82.10
2019-02-22T04:46:09.993Z,83.00
2019-02-22T04:47:09.990Z,87.50
2019-02-22T04:48:09.954Z,86.10
2019-02-22T04:49:09.981Z,84.90
2019-02-22T04:50:09.945Z,86.00
2019-02-22T04:51:09.972Z,84.50
2019-02-22T04:52:09.920Z,86.40
2019-02-22T04:53:09.926Z,86.40
2019-02-22T04:54:09.910Z,84.40
2019-02-22T04:55:09.931Z,83.30
2019-02-22T04:56:09.901Z,78.50
2019-02-22T04:57:09.873Z,78.90
2019-02-22T04:58:09.849Z,81.30
2019-02-22T04:59:09.837Z,85.00
2019-02-22T05:00:09.887Z,84.00
2019-02-22T05:01:09.822Z,88.80
2019-02-22T05:02:09.830Z,84.10
2019-02-22T05:03:09.801Z,82.10
2019-02-22T05:04:09.790Z,86.70
2019-02-22T05:05:09.882Z,84.20
2019-02-22T05:06:09.800Z,83.60
2019-02-22T05:07:09.814Z,84.50
2019-02-22T05:08:09.745Z,85.00
2019-02-22T05:09:09.734Z,84.40
2019-02-22T05:10:09.788Z,87.10
2019-02-22T05:11:09.716Z,82.40
2019-02-22T05:12:11.135Z,83.20
2019-02-22T05:13:09.705Z,86.60
2019-02-22T05:14:09.705Z,88.70
2019-02-22T05:15:12.754Z,83.00
2019-02-22T05:16:09.670Z,85.60
2019-02-22T05:17:09.810Z,84.00
2019-02-22T05:18:09.644Z,85.60
2019-02-22T05:19:09.670Z,88.00
2019-02-22T05:20:09.616Z,83.60
2019-02-22T05:21:09.603Z,87.00
2019-02-22T05:22:09.623Z,83.20
2019-02-22T05:23:09.640Z,87.80
2019-02-22T05:24:09.687Z,86.70
2019-02-22T05:25:09.576Z,90.90
2019-02-22T05:26:09.550Z,83.10
2019-02-22T05:27:09.554Z,83.20
2019-02-22T05:28:09.551Z,82.80
2019-02-22T05:29:09.536Z,85.70
2019-02-22T05:30:09.517Z,84.00
2019-02-22T05:31:09.529Z,84.30
2019-02-22T05:32:09.559Z,88.30
2019-02-22T05:33:09.478Z,86.90
2019-02-22T05:34:09.496Z,86.40
2019-02-22T05:35:09.456Z,84.50
2019-02-22T05:36:09.446Z,89.10
2019-02-22T05:37:09.492Z,85.10
2019-02-22T05:38:09.459Z,86.20
2019-02-22T05:39:18.685Z,85.50
2019-02-22T05:40:10.415Z,83.00
2019-02-22T05:41:09.394Z,88.40
2019-02-22T05:42:09.411Z,86.60
2019-02-22T05:43:09.391Z,85.20
2019-02-22T05:44:09.360Z,87.30
2019-02-22T05:45:09.354Z,84.50
2019-02-22T05:46:09.357Z,85.10
2019-02-22T05:47:09.336Z,83.10
2019-02-22T05:48:09.330Z,85.80
2019-02-22T05:49:09.330Z,80.90
2019-02-22T05:50:09.296Z,81.00
2019-02-22T05:51:09.355Z,83.00
2019-02-22T05:52:09.359Z,82.00
2019-02-22T05:53:10.032Z,79.90
2019-02-22T05:54:09.256Z,81.40
2019-02-22T05:55:09.303Z,82.60
2019-02-22T05:56:09.250Z,83.10
2019-02-22T05:57:09.218Z,89.10
2019-02-22T05:58:09.213Z,77.10
2019-02-22T05:59:09.217Z,84.00
2019-02-22T06:00:09.215Z,80.10
2019-02-22T06:01:09.175Z,80.10
2019-02-22T06:02:09.170Z,82.40
2019-02-22T06:03:09.185Z,78.30
2019-02-22T06:04:09.164Z,82.50
2019-02-22T06:05:09.234Z,79.10
2019-02-22T06:06:09.158Z,84.70
2019-02-22T06:07:09.128Z,80.40
2019-02-22T06:08:09.331Z,77.30
2019-02-22T06:09:09.181Z,83.10
2019-02-22T06:10:09.080Z,81.50
2019-02-22T06:11:09.085Z,87.00
2019-02-22T06:12:09.074Z,76.90
2019-02-22T06:13:09.144Z,78.20
2019-02-22T06:14:09.140Z,80.30
2019-02-22T06:15:09.027Z,80.40
2019-02-22T06:16:09.026Z,78.80
2019-02-22T06:17:14.523Z,81.10
2019-02-22T06:18:09.991Z,76.40
2019-02-22T06:19:08.991Z,83.80
2019-02-22T06:20:09.072Z,76.20
2019-02-22T06:21:08.956Z,77.40
2019-02-22T06:22:08.953Z,82.10
2019-02-22T06:23:08.943Z,83.10
2019-02-22T06:24:09.005Z,78.20
2019-02-22T06:25:08.920Z,78.70
2019-02-22T06:26:08.915Z,81.40
2019-02-22T06:27:08.901Z,81.70
2019-02-22T06:28:08.970Z,81.10
2019-02-22T06:29:08.889Z,82.40
2019-02-22T06:30:08.860Z,82.30
2019-02-22T06:31:08.855Z,82.60
2019-02-22T06:32:08.850Z,81.70
2019-02-22T06:33:08.843Z,82.30
2019-02-22T06:34:08.823Z,80.70
2019-02-22T06:35:09.204Z,79.60
2019-02-22T06:36:08.808Z,82.40
2019-02-22T06:37:08.810Z,82.50
2019-02-22T06:38:08.794Z,83.90
2019-02-22T06:39:08.764Z,78.80
2019-02-22T06:40:08.759Z,81.50
2019-02-22T06:41:08.746Z,78.80
2019-02-22T06:42:08.803Z,81.50
2019-02-22T06:43:08.739Z,75.10
2019-02-22T06:44:08.716Z,73.80
2019-02-22T06:45:08.700Z,74.40
2019-02-22T06:46:08.688Z,79.80
2019-02-22T06:47:08.702Z,80.00
2019-02-22T06:48:08.706Z,84.80
2019-02-22T06:49:08.661Z,80.50
2019-02-22T06:50:08.652Z,81.10
2019-02-22T06:51:08.637Z,76.40
2019-02-22T06:52:08.626Z,76.80
2019-02-22T06:53:08.627Z,76.30
2019-02-22T06:54:08.612Z,76.30
2019-02-22T06:55:08.597Z,80.40
2019-02-22T06:56:08.585Z,78.00
2019-02-22T06:57:08.571Z,72.10
2019-02-22T06:58:08.574Z,74.80
2019-02-22T06:59:08.608Z,79.40
2019-02-22T07:00:08.556Z,78.30
2019-02-22T07:01:08.530Z,75.20
2019-02-22T07:02:08.522Z,73.20
2019-02-22T07:03:08.524Z,75.20
2019-02-22T07:04:08.517Z,75.00
2019-02-22T07:05:08.508Z,71.10
2019-02-22T07:06:08.475Z,74.70
2019-02-22T07:07:08.476Z,77.50
2019-02-22T07:08:08.492Z,73.00
2019-02-22T07:09:08.449Z,79.20
2019-02-22T07:10:08.435Z,72.70
2019-02-22T07:11:08.431Z,73.50
2019-02-22T07:12:08.413Z,71.70
2019-02-22T07:13:08.414Z,73.10
2019-02-22T07:14:08.391Z,75.00
2019-02-22T07:15:08.379Z,72.00
2019-02-22T07:16:08.367Z,70.20
2019-02-22T07:17:08.382Z,73.60
2019-02-22T07:18:08.355Z,71.10
2019-02-22T07:19:08.351Z,72.90
2019-02-22T07:20:08.361Z,75.40
2019-02-22T07:21:08.319Z,67.00
2019-02-22T07:22:08.312Z,75.00
2019-02-22T07:23:08.308Z,71.40
2019-02-22T07:24:08.304Z,72.90
2019-02-22T07:25:08.295Z,70.80
2019-02-22T07:26:08.263Z,69.90
2019-02-22T07:27:08.251Z,71.00
2019-02-22T07:28:08.252Z,68.10
2019-02-22T07:29:08.247Z,69.90
2019-02-22T07:30:08.234Z,74.60
2019-02-22T07:31:08.210Z,72.40
2019-02-22T07:32:08.289Z,75.20
2019-02-22T07:33:08.195Z,69.70
2019-02-22T07:34:08.204Z,68.80
2019-02-22T07:35:09.711Z,67.80
2019-02-22T07:36:08.163Z,69.40
2019-02-22T07:37:08.144Z,67.10
2019-02-22T07:38:08.135Z,68.50
2019-02-22T07:39:08.556Z,66.80
2019-02-22T07:40:08.123Z,65.20
2019-02-22T07:41:08.121Z,62.80
2019-02-22T07:42:08.101Z,66.70
2019-02-22T07:43:08.468Z,65.10
2019-02-22T07:44:08.173Z,66.70
2019-02-22T07:45:08.070Z,64.30
2019-02-22T07:46:08.065Z,65.90
2019-02-22T07:47:08.055Z,65.40
2019-02-22T07:48:08.027Z,64.10
2019-02-22T07:49:08.051Z,67.80
2019-02-22T07:50:08.028Z,60.50
2019-02-22T07:51:08.003Z,66.60
2019-02-22T07:52:07.985Z,64.60
2019-02-22T07:53:07.995Z,62.80
2019-02-22T07:54:07.965Z,66.50
2019-02-22T07:55:07.959Z,61.20
2019-02-22T07:56:07.950Z,60.20
2019-02-22T07:57:07.934Z,60.20
2019-02-22T07:58:08.757Z,59.30
2019-02-22T07:59:07.959Z,61.00
2019-02-22T08:00:07.900Z,61.90
2019-02-22T08:01:07.970Z,59.70
2019-02-22T08:02:07.875Z,59.90
2019-02-22T08:03:07.887Z,57.90
2019-02-22T08:04:07.914Z,59.20
2019-02-22T08:05:09.156Z,61.80
2019-02-22T08:06:08.380Z,57.90
2019-02-22T08:07:07.856Z,55.60
2019-02-22T08:08:07.812Z,56.30
2019-02-22T08:09:07.817Z,55.60
2019-02-22T08:10:07.795Z,58.90
2019-02-22T08:11:07.785Z,59.80
2019-02-22T08:12:07.773Z,56.60
2019-02-22T08:13:19.092Z,58.60
2019-02-22T08:14:08.749Z,52.10
2019-02-22T08:15:07.846Z,52.50
2019-02-22T08:16:07.732Z,50.50
2019-02-22T08:17:07.722Z,47.80
2019-02-22T08:18:07.703Z,48.90
2019-02-22T08:19:07.694Z,45.40
2019-02-22T08:20:07.710Z,45.80
2019-02-22T08:21:07.689Z,46.30
2019-02-22T08:22:07.793Z,48.50
2019-02-22T08:23:07.657Z,43.90
2019-02-22T08:24:07.646Z,47.10
2019-02-22T08:25:07.635Z,48.80
2019-02-22T08:26:07.634Z,47.50
2019-02-22T08:27:07.615Z,47.90
2019-02-22T08:28:07.623Z,47.10
2019-02-22T08:29:08.498Z,45.30
2019-02-22T08:30:07.590Z,46.40
2019-02-22T08:31:07.571Z,43.30
2019-02-22T08:32:07.581Z,41.80
2019-02-22T08:33:07.551Z,43.80
2019-02-22T08:34:07.529Z,40.10
2019-02-22T08:35:07.533Z,41.10
2019-02-22T08:36:07.507Z,38.40
2019-02-22T08:37:07.599Z,39.70
2019-02-22T08:38:07.526Z,40.80
2019-02-22T08:39:07.493Z,41.80
2019-02-22T08:40:07.481Z,42.00
2019-02-22T08:41:07.451Z,42.00
2019-02-22T08:42:07.441Z,41.00
2019-02-22T08:43:07.435Z,41.80
2019-02-22T08:44:07.417Z,41.30
2019-02-22T08:45:09.518Z,41.40
2019-02-22T08:46:07.395Z,42.90
2019-02-22T08:47:07.385Z,41.10
2019-02-22T08:48:07.378Z,43.30
2019-02-22T08:49:07.384Z,41.20
2019-02-22T08:50:07.379Z,43.20
2019-02-22T08:51:07.348Z,42.90
2019-02-22T08:52:07.331Z,42.60
2019-02-22T08:53:07.318Z,41.10
2019-02-22T08:54:07.313Z,40.70
2019-02-22T08:55:07.312Z,46.10
2019-02-22T08:56:07.308Z,42.50
2019-02-22T08:57:07.275Z,39.40
2019-02-22T08:58:07.282Z,39.20
2019-02-22T08:59:07.256Z,38.50
2019-02-22T09:00:07.255Z,39.90
2019-02-22T09:01:07.228Z,37.20
2019-02-22T09:02:07.234Z,41.90
2019-02-22T09:03:07.212Z,38.30
2019-02-22T09:04:07.198Z,40.70
2019-02-22T09:05:07.216Z,38.30
2019-02-22T09:06:07.174Z,38.40
2019-02-22T09:07:07.166Z,35.10
2019-02-22T09:08:07.169Z,40.30
2019-02-22T09:09:07.141Z,35.70
2019-02-22T09:10:07.175Z,37.50
2019-02-22T09:11:07.126Z,36.40
2019-02-22T09:12:07.130Z,34.60
2019-02-22T09:13:07.095Z,37.40
2019-02-22T09:14:07.084Z,39.10
2019-02-22T09:15:07.125Z,33.30
2019-02-22T09:16:07.071Z,37.50
2019-02-22T09:17:07.077Z,33.80
2019-02-22T09:18:07.042Z,34.20
2019-02-22T09:19:07.050Z,31.60
2019-02-22T09:20:07.045Z,31.80
2019-02-22T09:21:07.007Z,30.10
2019-02-22T09:22:06.996Z,28.00
2019-02-22T09:23:07.703Z,27.60
2019-02-22T09:24:06.976Z,27.00
2019-02-22T09:25:06.975Z,27.80
2019-02-22T09:26:06.957Z,26.20
2019-02-22T09:27:06.950Z,25.70
2019-02-22T09:28:06.957Z,26.80
2019-02-22T09:29:06.917Z,28.00
2019-02-22T09:30:06.909Z,26.20
2019-02-22T09:31:06.898Z,24.60
2019-02-22T09:32:06.886Z,27.50
2019-02-22T09:33:06.896Z,24.70
2019-02-22T09:34:06.913Z,24.80
2019-02-22T09:35:06.856Z,25.90
2019-02-22T09:36:06.844Z,23.30
2019-02-22T09:37:06.843Z,25.40
2019-02-22T09:38:06.817Z,24.20
2019-02-22T09:39:06.811Z,23.80
2019-02-22T09:40:06.808Z,24.40
2019-02-22T09:41:06.797Z,23.80
2019-02-22T09:42:06.780Z,21.90
2019-02-22T09:43:06.777Z,23.00
2019-02-22T09:44:06.756Z,23.80
2019-02-22T09:45:06.758Z,23.80
2019-02-22T09:46:07.527Z,21.60
2019-02-22T09:47:06.718Z,22.40
2019-02-22T09:48:06.711Z,23.10
2019-02-22T09:49:06.697Z,21.90
2019-02-22T09:50:06.728Z,22.70
2019-02-22T09:51:06.679Z,20.10
2019-02-22T09:52:06.663Z,23.50
2019-02-22T09:53:06.689Z,21.90
2019-02-22T09:54:06.643Z,21.70
2019-02-22T09:55:06.628Z,20.90
2019-02-22T09:56:06.632Z,22.10
2019-02-22T09:57:06.611Z,23.70
2019-02-22T09:58:06.601Z,24.10
2019-02-22T09:59:06.587Z,25.00
2019-02-22T10:00:06.576Z,23.20
2019-02-22T10:01:06.566Z,23.50
2019-02-22T10:02:06.625Z,24.30
2019-02-22T10:03:06.543Z,22.20
2019-02-22T10:04:06.547Z,22.30
2019-02-22T10:05:06.518Z,25.40
2019-02-22T10:06:06.519Z,21.90
2019-02-22T10:07:06.523Z,21.90
2019-02-22T10:08:06.487Z,21.30
2019-02-22T10:09:06.518Z,20.80
2019-02-22T10:10:06.464Z,22.50
2019-02-22T10:11:06.468Z,21.50
2019-02-22T10:12:06.443Z,21.50
2019-02-22T10:13:06.438Z,21.40
2019-02-22T10:14:07.142Z,18.80
2019-02-22T10:15:06.408Z,17.10
2019-02-22T10:16:06.536Z,19.50
2019-02-22T10:17:06.406Z,18.50
2019-02-22T10:18:06.376Z,17.70
2019-02-22T10:19:06.379Z,16.80
2019-02-22T10:20:06.355Z,15.10
2019-02-22T10:21:06.351Z,16.10
2019-02-22T10:22:06.330Z,15.80
2019-02-22T10:23:06.337Z,14.20
2019-02-22T10:24:06.315Z,16.30
2019-02-22T10:25:06.354Z,13.70
2019-02-22T10:26:06.298Z,14.50
2019-02-22T10:27:06.277Z,12.90
2019-02-22T10:28:16.929Z,16.10
2019-02-22T10:29:07.257Z,15.10
2019-02-22T10:30:06.250Z,14.20
2019-02-22T10:31:06.251Z,14.80
2019-02-22T10:32:06.228Z,16.50
2019-02-22T10:33:06.235Z,16.00
2019-02-22T10:34:06.229Z,12.70
2019-02-22T10:35:06.193Z,13.70
2019-02-22T10:36:06.203Z,16.10
2019-02-22T10:37:06.169Z,13.50
2019-02-22T10:38:06.201Z,12.60
2019-02-22T10:39:06.290Z,11.40
2019-02-22T10:40:06.150Z,9.50
2019-02-22T10:41:06.154Z,11.80
2019-02-22T10:42:06.136Z,11.70
2019-02-22T10:43:06.108Z,10.80
2019-02-22T10:44:17.064Z,8.20
2019-02-22T10:45:07.082Z,9.50
2019-02-22T10:46:06.079Z,10.10
2019-02-22T10:47:06.064Z,8.40
2019-02-22T10:48:06.050Z,9.30
2019-02-22T10:49:06.035Z,9.10
2019-02-22T10:50:06.029Z,11.70
2019-02-22T10:51:06.043Z,9.60
2019-02-22T10:52:06.131Z,8.50
2019-02-22T10:53:05.999Z,11.10
2019-02-22T10:54:05.993Z,8.60
2019-02-22T10:55:05.973Z,9.30
2019-02-22T10:56:05.978Z,14.10
2019-02-22T10:57:05.975Z,14.40
2019-02-22T10:58:05.941Z,7.70
2019-02-22T10:59:06.097Z,13.00
2019-02-22T11:00:05.919Z,9.20
2019-02-22T11:01:05.916Z,8.00
2019-02-22T11:02:05.897Z,9.10
2019-02-22T11:03:05.883Z,10.00
2019-02-22T11:04:05.881Z,11.20
2019-02-22T11:05:05.862Z,8.50
2019-02-22T11:06:05.908Z,9.70
2019-02-22T11:07:05.841Z,13.70
2019-02-22T11:08:05.831Z,10.40
2019-02-22T11:09:05.818Z,11.70
2019-02-22T11:10:05.808Z,10.60
2019-02-22T11:11:05.807Z,11.60
2019-02-22T11:12:05.803Z,8.40
2019-02-22T11:13:05.788Z,10.30
2019-02-22T11:14:05.829Z,7.00
2019-02-22T11:15:05.786Z,6.10
2019-02-22T11:16:05.742Z,10.10
2019-02-22T11:17:05.792Z,10.40
2019-02-22T11:18:05.719Z,13.20
2019-02-22T11:19:05.712Z,11.20
2019-02-22T11:20:05.698Z,6.60
2019-02-22T11:21:05.704Z,10.50
2019-02-22T11:22:05.682Z,8.90
2019-02-22T11:23:05.668Z,12.50
2019-02-22T11:24:05.653Z,5.20
2019-02-22T11:25:05.646Z,9.30
2019-02-22T11:26:05.634Z,6.40
2019-02-22T11:27:05.636Z,8.00
2019-02-22T11:28:05.610Z,4.30
2019-02-22T11:29:05.599Z,6.20
2019-02-22T11:30:05.589Z,5.40
2019-02-22T11:31:05.597Z,4.00
2019-02-22T11:32:05.593Z,6.50
2019-02-22T11:33:05.559Z,4.80
2019-02-22T11:34:05.543Z,5.00
2019-02-22T11:35:05.563Z,7.50
2019-02-22T11:36:05.554Z,4.20
2019-02-22T11:37:05.524Z,4.40
2019-02-22T11:38:05.507Z,4.50
2019-02-22T11:39:05.489Z,6.00
2019-02-22T11:40:05.478Z,4.00
2019-02-22T11:41:05.468Z,3.80
2019-02-22T11:42:06.993Z,4.20
2019-02-22T11:43:05.450Z,3.60
2019-02-22T11:44:05.438Z,3.70
2019-02-22T11:45:05.431Z,4.20
2019-02-22T11:46:05.417Z,4.70
2019-02-22T11:47:05.418Z,5.00
2019-02-22T11:48:09.219Z,4.20
2019-02-22T11:49:05.382Z,4.90
2019-02-22T11:50:05.386Z,5.20
2019-02-22T11:51:05.358Z,3.30
2019-02-22T11:52:05.375Z,4.10
2019-02-22T11:53:05.342Z,5.20
2019-02-22T11:54:05.347Z,5.80
2019-02-22T11:55:05.337Z,5.30
2019-02-22T11:56:05.304Z,5.20
2019-02-22T11:57:05.311Z,7.60
2019-02-22T11:58:05.287Z,9.70
2019-02-22T11:59:05.291Z,5.10
2019-02-22T12:00:05.270Z,4.90
2019-02-22T12:01:05.273Z,4.70
2019-02-22T12:02:05.293Z,6.60
2019-02-22T12:03:21.133Z,6.80
2019-02-22T12:04:06.228Z,7.50
2019-02-22T12:05:05.209Z,8.40
2019-02-22T12:06:05.206Z,7.30
2019-02-22T12:07:05.202Z,7.40
2019-02-22T12:08:05.253Z,8.20
2019-02-22T12:09:05.161Z,9.50
2019-02-22T12:10:05.167Z,6.40
2019-02-22T12:11:05.165Z,6.40
2019-02-22T12:12:05.153Z,6.00
2019-02-22T12:13:05.121Z,8.40
2019-02-22T12:14:05.110Z,6.70
2019-02-22T12:15:05.096Z,7.90
2019-02-22T12:16:05.096Z,6.00
2019-02-22T12:17:05.090Z,5.80
2019-02-22T12:18:05.083Z,8.00
2019-02-22T12:19:05.052Z,8.30
2019-02-22T12:20:05.046Z,6.80
2019-02-22T12:21:05.034Z,5.80
2019-02-22T12:22:05.038Z,6.50
2019-02-22T12:23:05.016Z,6.20
2019-02-22T12:24:04.999Z,6.20
2019-02-22T12:25:04.993Z,7.50
2019-02-22T12:26:05.044Z,7.20
2019-02-22T12:27:04.996Z,7.10
2019-02-22T12:28:04.961Z,9.70
2019-02-22T12:29:05.032Z,6.70
2019-02-22T12:30:04.979Z,11.00
2019-02-22T12:31:05.012Z,10.60
2019-02-22T12:32:04.936Z,7.30
2019-02-22T12:33:04.926Z,8.80
2019-02-22T12:34:04.890Z,6.70
2019-02-22T12:35:04.944Z,7.60
2019-02-22T12:36:04.963Z,7.40
2019-02-22T12:37:04.864Z,11.80
2019-02-22T12:38:04.969Z,9.80
2019-02-22T12:39:04.889Z,5.60
2019-02-22T12:40:04.842Z,4.60
2019-02-22T12:41:04.862Z,5.10
2019-02-22T12:42:04.846Z,5.50
2019-02-22T12:43:04.797Z,5.90
2019-02-22T12:44:04.808Z,5.20
2019-02-22T12:45:04.784Z,5.80
2019-02-22T12:46:04.785Z,8.10
2019-02-22T12:47:04.760Z,4.40
2019-02-22T12:48:04.768Z,7.00
2019-02-22T12:49:04.807Z,5.30
2019-02-22T12:50:04.778Z,5.40
2019-02-22T12:51:04.730Z,6.60
2019-02-22T12:52:04.711Z,5.20
2019-02-22T12:53:05.625Z,4.70
2019-02-22T12:54:04.694Z,6.20
2019-02-22T12:55:04.682Z,3.90
2019-02-22T12:56:04.651Z,5.40